sensor_id;sensor_type;location;lat;lon;timestamp;temperature;humidity
14531;DHT22;7352;50.866;4.366;2022-11-15T00:01:02;12.90;99.90
14531;DHT22;7352;50.866;4.366;2022-11-15T00:03:32;12.90;99.90
14531;DHT22;7352;50.866;4.366;2022-11-15T00:06:02;13.00;99.90
14531;DHT22;7352;50.866;4.366;2022-11-15T00:08:29;12.90;99.90
14531;DHT22;7352;50.866;4.366;2022-11-15T00:10:59;13.00;99.90
14531;DHT22;7352;50.866;4.366;2022-11-15T00:13:27;13.00;99.90
14531;DHT22;7352;50.866;4.366;2022-11-15T00:15:57;12.90;99.90
14531;DHT22;7352;50.866;4.366;2022-11-15T00:18:26;12.90;99.90
14531;DHT22;7352;50.866;4.366;2022-11-15T00:20:53;12.80;99.90
14531;DHT22;7352;50.866;4.366;2022-11-15T00:23:20;12.80;99.90
14531;DHT22;7352;50.866;4.366;2022-11-15T00:25:55;12.80;99.90
14531;DHT22;7352;50.866;4.366;2022-11-15T00:28:23;12.80;99.90
14531;DHT22;7352;50.866;4.366;2022-11-15T00:30:51;12.80;99.90
14531;DHT22;7352;50.866;4.366;2022-11-15T00:33:18;12.90;99.90
14531;DHT22;7352;50.866;4.366;2022-11-15T00:35:47;13.00;99.90
14531;DHT22;7352;50.866;4.366;2022-11-15T00:38:13;13.00;99.90
14531;DHT22;7352;50.866;4.366;2022-11-15T00:40:41;12.90;99.90
14531;DHT22;7352;50.866;4.366;2022-11-15T00:43:08;13.00;99.90
14531;DHT22;7352;50.866;4.366;2022-11-15T00:45:35;13.10;99.90
14531;DHT22;7352;50.866;4.366;2022-11-15T00:48:01;13.10;99.90
14531;DHT22;7352;50.866;4.366;2022-11-15T00:50:28;13.20;99.90
14531;DHT22;7352;50.866;4.366;2022-11-15T00:52:58;13.10;99.90
14531;DHT22;7352;50.866;4.366;2022-11-15T00:55:24;13.20;99.90
14531;DHT22;7352;50.866;4.366;2022-11-15T00:57:52;13.30;99.90
14531;DHT22;7352;50.866;4.366;2022-11-15T01:00:19;13.30;99.90
14531;DHT22;7352;50.866;4.366;2022-11-15T01:02:46;13.40;99.90
14531;DHT22;7352;50.866;4.366;2022-11-15T01:05:13;13.40;99.90
14531;DHT22;7352;50.866;4.366;2022-11-15T01:07:43;13.40;99.90
14531;DHT22;7352;50.866;4.366;2022-11-15T01:10:11;13.30;99.90
14531;DHT22;7352;50.866;4.366;2022-11-15T01:12:39;13.20;99.90
14531;DHT22;7352;50.866;4.366;2022-11-15T01:15:07;13.30;99.90
14531;DHT22;7352;50.866;4.366;2022-11-15T01:17:34;13.40;99.90
14531;DHT22;7352;50.866;4.366;2022-11-15T01:20:01;13.30;99.90
14531;DHT22;7352;50.866;4.366;2022-11-15T01:22:28;13.30;99.90
14531;DHT22;7352;50.866;4.366;2022-11-15T01:24:55;13.20;99.90
14531;DHT22;7352;50.866;4.366;2022-11-15T01:27:24;13.20;99.90
14531;DHT22;7352;50.866;4.366;2022-11-15T01:29:51;13.20;99.90
14531;DHT22;7352;50.866;4.366;2022-11-15T01:32:18;13.20;99.90
14531;DHT22;7352;50.866;4.366;2022-11-15T01:34:45;13.20;99.90
14531;DHT22;7352;50.866;4.366;2022-11-15T01:37:15;13.30;99.90
14531;DHT22;7352;50.866;4.366;2022-11-15T01:39:42;13.30;99.90
14531;DHT22;7352;50.866;4.366;2022-11-15T01:42:12;13.50;99.90
14531;DHT22;7352;50.866;4.366;2022-11-15T01:44:43;13.40;99.90
14531;DHT22;7352;50.866;4.366;2022-11-15T01:47:13;13.40;99.90
14531;DHT22;7352;50.866;4.366;2022-11-15T01:49:52;13.40;99.90
14531;DHT22;7352;50.866;4.366;2022-11-15T01:52:24;13.40;99.90
14531;DHT22;7352;50.866;4.366;2022-11-15T01:54:55;13.40;99.90
14531;DHT22;7352;50.866;4.366;2022-11-15T01:57:25;13.30;99.90
14531;DHT22;7352;50.866;4.366;2022-11-15T01:59:54;13.30;99.90
14531;DHT22;7352;50.866;4.366;2022-11-15T02:02:21;13.20;99.90
14531;DHT22;7352;50.866;4.366;2022-11-15T02:04:48;13.30;99.90
14531;DHT22;7352;50.866;4.366;2022-11-15T02:07:17;13.20;99.90
14531;DHT22;7352;50.866;4.366;2022-11-15T02:09:45;13.20;99.90
14531;DHT22;7352;50.866;4.366;2022-11-15T02:12:14;13.20;99.90
14531;DHT22;7352;50.866;4.366;2022-11-15T02:14:44;13.20;99.90
14531;DHT22;7352;50.866;4.366;2022-11-15T02:17:24;13.10;99.90
14531;DHT22;7352;50.866;4.366;2022-11-15T02:23:20;13.10;99.90
14531;DHT22;7352;50.866;4.366;2022-11-15T02:26:09;13.10;99.90
14531;DHT22;7352;50.866;4.366;2022-11-15T02:28:53;13.20;99.90
14531;DHT22;7352;50.866;4.366;2022-11-15T02:31:29;13.20;99.90
14531;DHT22;7352;50.866;4.366;2022-11-15T02:34:04;13.10;99.90
14531;DHT22;7352;50.866;4.366;2022-11-15T02:36:38;13.10;99.90
14531;DHT22;7352;50.866;4.366;2022-11-15T02:39:10;13.30;99.90
14531;DHT22;7352;50.866;4.366;2022-11-15T02:41:47;13.30;99.90
14531;DHT22;7352;50.866;4.366;2022-11-15T02:44:20;13.20;99.90
14531;DHT22;7352;50.866;4.366;2022-11-15T02:46:51;13.20;99.90
14531;DHT22;7352;50.866;4.366;2022-11-15T02:49:38;13.20;99.90
14531;DHT22;7352;50.866;4.366;2022-11-15T02:52:06;13.30;99.90
14531;DHT22;7352;50.866;4.366;2022-11-15T02:54:34;13.20;99.90
14531;DHT22;7352;50.866;4.366;2022-11-15T02:57:03;13.20;99.90
14531;DHT22;7352;50.866;4.366;2022-11-15T02:59:56;13.20;99.90
14531;DHT22;7352;50.866;4.366;2022-11-15T03:02:42;13.20;99.90
14531;DHT22;7352;50.866;4.366;2022-11-15T03:05:18;13.30;99.90
14531;DHT22;7352;50.866;4.366;2022-11-15T03:07:52;13.30;99.90
14531;DHT22;7352;50.866;4.366;2022-11-15T03:10:32;13.30;99.90
14531;DHT22;7352;50.866;4.366;2022-11-15T03:13:08;13.30;99.90
14531;DHT22;7352;50.866;4.366;2022-11-15T03:15:40;13.30;99.90
14531;DHT22;7352;50.866;4.366;2022-11-15T03:18:15;13.20;99.90
14531;DHT22;7352;50.866;4.366;2022-11-15T03:20:44;13.30;99.90
14531;DHT22;7352;50.866;4.366;2022-11-15T03:23:13;13.30;99.90
14531;DHT22;7352;50.866;4.366;2022-11-15T03:25:43;13.20;99.90
14531;DHT22;7352;50.866;4.366;2022-11-15T03:28:15;13.10;99.90
14531;DHT22;7352;50.866;4.366;2022-11-15T03:30:44;13.20;99.90
14531;DHT22;7352;50.866;4.366;2022-11-15T03:33:14;13.10;99.90
14531;DHT22;7352;50.866;4.366;2022-11-15T03:35:43;13.30;99.90
14531;DHT22;7352;50.866;4.366;2022-11-15T03:38:15;13.20;99.90
14531;DHT22;7352;50.866;4.366;2022-11-15T03:40:47;13.20;99.90
14531;DHT22;7352;50.866;4.366;2022-11-15T03:43:22;13.30;99.90
14531;DHT22;7352;50.866;4.366;2022-11-15T03:45:54;13.20;99.90
14531;DHT22;7352;50.866;4.366;2022-11-15T03:48:26;13.20;99.90
14531;DHT22;7352;50.866;4.366;2022-11-15T03:50:54;13.20;99.90
14531;DHT22;7352;50.866;4.366;2022-11-15T03:53:22;13.10;99.90
14531;DHT22;7352;50.866;4.366;2022-11-15T03:55:49;13.10;99.90
14531;DHT22;7352;50.866;4.366;2022-11-15T03:58:16;13.00;99.90
14531;DHT22;7352;50.866;4.366;2022-11-15T04:00:43;12.90;99.90
14531;DHT22;7352;50.866;4.366;2022-11-15T04:03:10;13.00;99.90
14531;DHT22;7352;50.866;4.366;2022-11-15T04:05:40;13.00;99.90
14531;DHT22;7352;50.866;4.366;2022-11-15T04:08:07;12.90;99.90
14531;DHT22;7352;50.866;4.366;2022-11-15T04:10:34;12.90;99.90
14531;DHT22;7352;50.866;4.366;2022-11-15T04:13:02;12.90;99.90
14531;DHT22;7352;50.866;4.366;2022-11-15T04:15:29;12.90;99.90
14531;DHT22;7352;50.866;4.366;2022-11-15T04:17:57;12.80;99.90
14531;DHT22;7352;50.866;4.366;2022-11-15T04:20:28;12.80;99.90
14531;DHT22;7352;50.866;4.366;2022-11-15T04:23:15;12.70;99.90
14531;DHT22;7352;50.866;4.366;2022-11-15T04:26:03;12.70;99.90
14531;DHT22;7352;50.866;4.366;2022-11-15T04:28:31;12.80;99.90
14531;DHT22;7352;50.866;4.366;2022-11-15T04:30:59;12.80;99.90
14531;DHT22;7352;50.866;4.366;2022-11-15T04:33:25;12.90;99.90
14531;DHT22;7352;50.866;4.366;2022-11-15T04:35:52;12.90;99.90
14531;DHT22;7352;50.866;4.366;2022-11-15T04:38:38;12.90;99.90
14531;DHT22;7352;50.866;4.366;2022-11-15T04:41:05;12.80;99.90
14531;DHT22;7352;50.866;4.366;2022-11-15T04:43:32;12.90;99.90
14531;DHT22;7352;50.866;4.366;2022-11-15T04:45:59;12.80;99.90
14531;DHT22;7352;50.866;4.366;2022-11-15T04:48:26;12.70;99.90
14531;DHT22;7352;50.866;4.366;2022-11-15T04:50:53;12.60;99.90
14531;DHT22;7352;50.866;4.366;2022-11-15T04:53:20;12.60;99.90
14531;DHT22;7352;50.866;4.366;2022-11-15T04:55:48;12.50;99.90
14531;DHT22;7352;50.866;4.366;2022-11-15T04:58:15;12.50;99.90
14531;DHT22;7352;50.866;4.366;2022-11-15T05:00:42;12.60;99.90
14531;DHT22;7352;50.866;4.366;2022-11-15T05:03:09;12.50;99.90
14531;DHT22;7352;50.866;4.366;2022-11-15T05:05:54;12.60;99.90
14531;DHT22;7352;50.866;4.366;2022-11-15T05:08:21;12.50;99.90
14531;DHT22;7352;50.866;4.366;2022-11-15T05:10:50;12.40;99.90
14531;DHT22;7352;50.866;4.366;2022-11-15T05:13:17;12.40;99.90
14531;DHT22;7352;50.866;4.366;2022-11-15T05:15:47;12.30;99.90
14531;DHT22;7352;50.866;4.366;2022-11-15T05:18:14;12.30;99.90
14531;DHT22;7352;50.866;4.366;2022-11-15T05:20:41;12.30;99.90
14531;DHT22;7352;50.866;4.366;2022-11-15T05:23:09;12.20;99.90
14531;DHT22;7352;50.866;4.366;2022-11-15T05:25:36;12.20;99.90
14531;DHT22;7352;50.866;4.366;2022-11-15T05:28:05;12.20;99.90
14531;DHT22;7352;50.866;4.366;2022-11-15T05:30:32;12.30;99.90
14531;DHT22;7352;50.866;4.366;2022-11-15T05:32:59;12.30;99.90
14531;DHT22;7352;50.866;4.366;2022-11-15T05:35:30;12.20;99.90
14531;DHT22;7352;50.866;4.366;2022-11-15T05:37:58;12.30;99.90
14531;DHT22;7352;50.866;4.366;2022-11-15T05:40:25;12.20;99.90
14531;DHT22;7352;50.866;4.366;2022-11-15T05:42:52;12.20;99.90
14531;DHT22;7352;50.866;4.366;2022-11-15T05:45:21;12.10;99.90
14531;DHT22;7352;50.866;4.366;2022-11-15T05:47:49;12.00;99.90
14531;DHT22;7352;50.866;4.366;2022-11-15T05:50:18;11.90;99.90
14531;DHT22;7352;50.866;4.366;2022-11-15T05:52:46;11.90;99.90
14531;DHT22;7352;50.866;4.366;2022-11-15T05:55:16;11.90;99.90
14531;DHT22;7352;50.866;4.366;2022-11-15T05:57:46;11.90;99.90
14531;DHT22;7352;50.866;4.366;2022-11-15T06:00:13;11.90;99.90
14531;DHT22;7352;50.866;4.366;2022-11-15T06:02:42;11.80;99.90
14531;DHT22;7352;50.866;4.366;2022-11-15T06:05:15;11.90;99.90
14531;DHT22;7352;50.866;4.366;2022-11-15T06:07:42;12.00;99.90
14531;DHT22;7352;50.866;4.366;2022-11-15T06:10:15;11.90;99.90
14531;DHT22;7352;50.866;4.366;2022-11-15T06:12:42;11.80;99.90
14531;DHT22;7352;50.866;4.366;2022-11-15T06:15:27;11.70;99.90
14531;DHT22;7352;50.866;4.366;2022-11-15T06:18:20;11.70;99.90
14531;DHT22;7352;50.866;4.366;2022-11-15T06:20:47;11.60;99.90
14531;DHT22;7352;50.866;4.366;2022-11-15T06:23:15;11.60;99.90
14531;DHT22;7352;50.866;4.366;2022-11-15T06:25:42;11.60;99.90
14531;DHT22;7352;50.866;4.366;2022-11-15T06:28:09;11.60;99.90
14531;DHT22;7352;50.866;4.366;2022-11-15T06:30:36;11.70;99.90
14531;DHT22;7352;50.866;4.366;2022-11-15T06:33:05;11.70;99.90
14531;DHT22;7352;50.866;4.366;2022-11-15T06:35:40;11.60;99.90
14531;DHT22;7352;50.866;4.366;2022-11-15T06:38:09;11.60;99.90
14531;DHT22;7352;50.866;4.366;2022-11-15T06:40:37;11.50;99.90
14531;DHT22;7352;50.866;4.366;2022-11-15T06:43:05;11.50;99.90
14531;DHT22;7352;50.866;4.366;2022-11-15T06:45:33;11.50;99.90
14531;DHT22;7352;50.866;4.366;2022-11-15T06:48:02;11.40;99.90
14531;DHT22;7352;50.866;4.366;2022-11-15T06:50:52;11.50;99.90
14531;DHT22;7352;50.866;4.366;2022-11-15T06:53:21;11.50;99.90
14531;DHT22;7352;50.866;4.366;2022-11-15T06:55:49;11.50;99.90
14531;DHT22;7352;50.866;4.366;2022-11-15T06:58:23;11.50;99.90
14531;DHT22;7352;50.866;4.366;2022-11-15T07:01:09;11.50;99.90
14531;DHT22;7352;50.866;4.366;2022-11-15T07:03:37;11.50;99.90
14531;DHT22;7352;50.866;4.366;2022-11-15T07:06:10;11.40;99.90
14531;DHT22;7352;50.866;4.366;2022-11-15T07:08:38;11.50;99.90
14531;DHT22;7352;50.866;4.366;2022-11-15T07:11:07;11.30;99.90
14531;DHT22;7352;50.866;4.366;2022-11-15T07:13:35;11.40;99.90
14531;DHT22;7352;50.866;4.366;2022-11-15T07:16:03;11.40;99.90
14531;DHT22;7352;50.866;4.366;2022-11-15T07:18:33;11.50;99.90
14531;DHT22;7352;50.866;4.366;2022-11-15T07:21:02;11.40;99.90
14531;DHT22;7352;50.866;4.366;2022-11-15T07:23:31;11.40;99.90
14531;DHT22;7352;50.866;4.366;2022-11-15T07:25:59;11.30;99.90
14531;DHT22;7352;50.866;4.366;2022-11-15T07:28:26;11.30;99.90
14531;DHT22;7352;50.866;4.366;2022-11-15T07:30:53;11.40;99.90
14531;DHT22;7352;50.866;4.366;2022-11-15T07:33:20;11.40;99.90
14531;DHT22;7352;50.866;4.366;2022-11-15T07:35:47;11.40;99.90
14531;DHT22;7352;50.866;4.366;2022-11-15T07:38:16;11.30;99.90
14531;DHT22;7352;50.866;4.366;2022-11-15T07:40:47;11.40;99.90
14531;DHT22;7352;50.866;4.366;2022-11-15T07:43:26;11.40;99.90
14531;DHT22;7352;50.866;4.366;2022-11-15T07:45:53;11.40;99.90
14531;DHT22;7352;50.866;4.366;2022-11-15T07:48:21;11.30;99.90
14531;DHT22;7352;50.866;4.366;2022-11-15T07:50:48;11.30;99.90
14531;DHT22;7352;50.866;4.366;2022-11-15T07:53:15;11.40;99.90
14531;DHT22;7352;50.866;4.366;2022-11-15T07:55:42;11.40;99.90
14531;DHT22;7352;50.866;4.366;2022-11-15T07:58:12;11.30;99.90
14531;DHT22;7352;50.866;4.366;2022-11-15T08:00:38;11.30;99.90
14531;DHT22;7352;50.866;4.366;2022-11-15T08:03:07;11.30;99.90
14531;DHT22;7352;50.866;4.366;2022-11-15T08:05:35;11.40;99.90
14531;DHT22;7352;50.866;4.366;2022-11-15T08:08:02;11.40;99.90
14531;DHT22;7352;50.866;4.366;2022-11-15T08:10:29;11.40;99.90
14531;DHT22;7352;50.866;4.366;2022-11-15T08:12:58;11.50;99.90
14531;DHT22;7352;50.866;4.366;2022-11-15T08:15:27;11.40;99.90
14531;DHT22;7352;50.866;4.366;2022-11-15T08:17:55;11.50;99.90
14531;DHT22;7352;50.866;4.366;2022-11-15T08:20:22;11.40;99.90
14531;DHT22;7352;50.866;4.366;2022-11-15T08:22:49;11.50;99.90
14531;DHT22;7352;50.866;4.366;2022-11-15T08:25:16;11.70;99.90
14531;DHT22;7352;50.866;4.366;2022-11-15T08:27:44;11.80;99.90
14531;DHT22;7352;50.866;4.366;2022-11-15T08:30:11;11.80;99.90
14531;DHT22;7352;50.866;4.366;2022-11-15T08:32:40;11.70;99.90
14531;DHT22;7352;50.866;4.366;2022-11-15T08:35:08;11.70;99.90
14531;DHT22;7352;50.866;4.366;2022-11-15T08:37:35;11.70;99.90
14531;DHT22;7352;50.866;4.366;2022-11-15T08:40:03;11.80;99.90
14531;DHT22;7352;50.866;4.366;2022-11-15T08:42:30;11.90;99.90
14531;DHT22;7352;50.866;4.366;2022-11-15T08:44:57;11.80;99.90
14531;DHT22;7352;50.866;4.366;2022-11-15T08:47:24;12.00;99.90
14531;DHT22;7352;50.866;4.366;2022-11-15T08:49:52;11.90;99.90
14531;DHT22;7352;50.866;4.366;2022-11-15T08:52:19;11.90;99.90
14531;DHT22;7352;50.866;4.366;2022-11-15T08:54:46;11.90;99.90
14531;DHT22;7352;50.866;4.366;2022-11-15T08:57:13;11.90;99.90
14531;DHT22;7352;50.866;4.366;2022-11-15T08:59:40;12.00;99.90
14531;DHT22;7352;50.866;4.366;2022-11-15T09:02:11;12.00;99.90
14531;DHT22;7352;50.866;4.366;2022-11-15T09:04:39;12.00;99.90
14531;DHT22;7352;50.866;4.366;2022-11-15T09:07:09;12.10;99.90
14531;DHT22;7352;50.866;4.366;2022-11-15T09:09:36;12.00;99.90
14531;DHT22;7352;50.866;4.366;2022-11-15T09:12:04;12.10;99.90
14531;DHT22;7352;50.866;4.366;2022-11-15T09:14:31;12.00;99.90
14531;DHT22;7352;50.866;4.366;2022-11-15T09:16:59;12.20;99.90
14531;DHT22;7352;50.866;4.366;2022-11-15T09:19:26;12.20;99.90
14531;DHT22;7352;50.866;4.366;2022-11-15T09:21:53;12.20;99.90
14531;DHT22;7352;50.866;4.366;2022-11-15T09:24:22;12.30;99.90
14531;DHT22;7352;50.866;4.366;2022-11-15T09:26:49;12.30;99.90
14531;DHT22;7352;50.866;4.366;2022-11-15T09:29:17;12.30;99.90
14531;DHT22;7352;50.866;4.366;2022-11-15T09:31:44;12.30;99.90
14531;DHT22;7352;50.866;4.366;2022-11-15T09:34:11;12.30;99.90
14531;DHT22;7352;50.866;4.366;2022-11-15T09:36:38;12.30;99.90
14531;DHT22;7352;50.866;4.366;2022-11-15T09:39:05;12.40;99.90
14531;DHT22;7352;50.866;4.366;2022-11-15T09:42:00;12.40;99.90
14531;DHT22;7352;50.866;4.366;2022-11-15T09:44:43;12.50;99.90
14531;DHT22;7352;50.866;4.366;2022-11-15T09:47:37;12.60;99.90
14531;DHT22;7352;50.866;4.366;2022-11-15T09:50:10;12.60;99.90
14531;DHT22;7352;50.866;4.366;2022-11-15T09:52:41;12.70;99.90
14531;DHT22;7352;50.866;4.366;2022-11-15T09:55:10;12.50;99.90
14531;DHT22;7352;50.866;4.366;2022-11-15T09:57:46;12.60;99.90
14531;DHT22;7352;50.866;4.366;2022-11-15T10:00:19;12.60;99.90
14531;DHT22;7352;50.866;4.366;2022-11-15T10:02:58;12.70;99.90
14531;DHT22;7352;50.866;4.366;2022-11-15T10:05:28;12.80;99.90
14531;DHT22;7352;50.866;4.366;2022-11-15T10:07:59;12.80;99.90
14531;DHT22;7352;50.866;4.366;2022-11-15T10:10:32;12.80;99.90
14531;DHT22;7352;50.866;4.366;2022-11-15T10:13:03;12.80;99.90
14531;DHT22;7352;50.866;4.366;2022-11-15T10:15:31;12.80;99.90
14531;DHT22;7352;50.866;4.366;2022-11-15T10:18:15;12.80;99.90
14531;DHT22;7352;50.866;4.366;2022-11-15T10:20:48;12.90;99.90
14531;DHT22;7352;50.866;4.366;2022-11-15T10:23:17;12.90;99.90
14531;DHT22;7352;50.866;4.366;2022-11-15T10:25:44;13.00;99.90
14531;DHT22;7352;50.866;4.366;2022-11-15T10:28:16;13.20;99.90
14531;DHT22;7352;50.866;4.366;2022-11-15T10:30:45;13.10;99.90
14531;DHT22;7352;50.866;4.366;2022-11-15T10:33:20;13.10;99.90
14531;DHT22;7352;50.866;4.366;2022-11-15T10:36:17;13.10;99.90
14531;DHT22;7352;50.866;4.366;2022-11-15T10:38:53;13.30;99.90
14531;DHT22;7352;50.866;4.366;2022-11-15T10:41:22;13.40;99.90
14531;DHT22;7352;50.866;4.366;2022-11-15T10:44:03;13.40;99.90
14531;DHT22;7352;50.866;4.366;2022-11-15T10:46:35;13.40;99.90
14531;DHT22;7352;50.866;4.366;2022-11-15T10:49:13;13.50;99.90
14531;DHT22;7352;50.866;4.366;2022-11-15T10:51:45;13.70;99.90
14531;DHT22;7352;50.866;4.366;2022-11-15T10:54:14;13.80;99.90
14531;DHT22;7352;50.866;4.366;2022-11-15T10:56:49;13.90;99.90
14531;DHT22;7352;50.866;4.366;2022-11-15T10:59:26;14.00;99.90
14531;DHT22;7352;50.866;4.366;2022-11-15T11:01:54;14.00;99.90
14531;DHT22;7352;50.866;4.366;2022-11-15T11:04:21;13.90;99.90
14531;DHT22;7352;50.866;4.366;2022-11-15T11:06:52;14.00;99.90
14531;DHT22;7352;50.866;4.366;2022-11-15T11:09:30;13.90;99.90
14531;DHT22;7352;50.866;4.366;2022-11-15T11:11:58;13.90;99.90
14531;DHT22;7352;50.866;4.366;2022-11-15T11:14:28;14.10;99.90
14531;DHT22;7352;50.866;4.366;2022-11-15T11:17:03;14.20;99.90
14531;DHT22;7352;50.866;4.366;2022-11-15T11:19:41;14.20;99.90
14531;DHT22;7352;50.866;4.366;2022-11-15T11:22:20;14.20;99.90
14531;DHT22;7352;50.866;4.366;2022-11-15T11:24:56;14.10;99.90
14531;DHT22;7352;50.866;4.366;2022-11-15T11:27:36;14.20;99.90
14531;DHT22;7352;50.866;4.366;2022-11-15T11:30:08;14.30;99.90
14531;DHT22;7352;50.866;4.366;2022-11-15T11:32:56;14.30;99.90
14531;DHT22;7352;50.866;4.366;2022-11-15T11:35:30;14.40;99.90
14531;DHT22;7352;50.866;4.366;2022-11-15T11:38:10;14.50;99.90
14531;DHT22;7352;50.866;4.366;2022-11-15T11:40:44;14.50;99.90
14531;DHT22;7352;50.866;4.366;2022-11-15T11:43:25;14.50;99.90
14531;DHT22;7352;50.866;4.366;2022-11-15T11:46:07;14.50;99.90
14531;DHT22;7352;50.866;4.366;2022-11-15T11:48:41;14.50;99.90
14531;DHT22;7352;50.866;4.366;2022-11-15T11:51:13;14.60;99.90
14531;DHT22;7352;50.866;4.366;2022-11-15T11:53:46;14.70;99.90
14531;DHT22;7352;50.866;4.366;2022-11-15T11:56:22;14.80;99.90
14531;DHT22;7352;50.866;4.366;2022-11-15T11:58:52;14.70;99.90
14531;DHT22;7352;50.866;4.366;2022-11-15T12:01:23;14.60;99.90
14531;DHT22;7352;50.866;4.366;2022-11-15T12:03:59;14.60;99.90
14531;DHT22;7352;50.866;4.366;2022-11-15T12:06:33;14.80;99.90
14531;DHT22;7352;50.866;4.366;2022-11-15T12:09:11;14.80;99.90
14531;DHT22;7352;50.866;4.366;2022-11-15T12:11:50;15.00;99.90
14531;DHT22;7352;50.866;4.366;2022-11-15T12:14:27;14.90;99.90
14531;DHT22;7352;50.866;4.366;2022-11-15T12:16:57;14.90;99.90
14531;DHT22;7352;50.866;4.366;2022-11-15T12:19:24;15.00;99.90
14531;DHT22;7352;50.866;4.366;2022-11-15T12:21:55;14.80;99.90
14531;DHT22;7352;50.866;4.366;2022-11-15T12:24:27;14.80;99.90
14531;DHT22;7352;50.866;4.366;2022-11-15T12:27:00;14.90;99.90
14531;DHT22;7352;50.866;4.366;2022-11-15T12:29:33;14.90;99.90
14531;DHT22;7352;50.866;4.366;2022-11-15T12:32:02;15.00;99.90
14531;DHT22;7352;50.866;4.366;2022-11-15T12:34:40;14.90;99.90
14531;DHT22;7352;50.866;4.366;2022-11-15T12:37:32;14.90;99.90
14531;DHT22;7352;50.866;4.366;2022-11-15T12:40:28;14.90;99.90
14531;DHT22;7352;50.866;4.366;2022-11-15T12:46:02;15.00;99.90
14531;DHT22;7352;50.866;4.366;2022-11-15T12:48:57;15.00;99.90
14531;DHT22;7352;50.866;4.366;2022-11-15T12:54:59;15.00;99.90
14531;DHT22;7352;50.866;4.366;2022-11-15T12:57:46;15.10;99.90
14531;DHT22;7352;50.866;4.366;2022-11-15T13:00:43;15.10;99.90
14531;DHT22;7352;50.866;4.366;2022-11-15T13:03:26;15.10;99.90
14531;DHT22;7352;50.866;4.366;2022-11-15T13:06:36;15.20;99.90
14531;DHT22;7352;50.866;4.366;2022-11-15T13:09:06;15.20;99.90
14531;DHT22;7352;50.866;4.366;2022-11-15T13:11:53;15.10;99.90
14531;DHT22;7352;50.866;4.366;2022-11-15T13:14:47;15.10;99.90
14531;DHT22;7352;50.866;4.366;2022-11-15T13:17:33;15.40;99.90
14531;DHT22;7352;50.866;4.366;2022-11-15T13:20:21;15.50;99.90
14531;DHT22;7352;50.866;4.366;2022-11-15T13:22:49;15.40;99.90
14531;DHT22;7352;50.866;4.366;2022-11-15T13:28:21;15.40;99.90
14531;DHT22;7352;50.866;4.366;2022-11-15T13:30:51;15.30;99.90
14531;DHT22;7352;50.866;4.366;2022-11-15T13:33:20;15.40;99.90
14531;DHT22;7352;50.866;4.366;2022-11-15T13:35:52;15.20;99.90
14531;DHT22;7352;50.866;4.366;2022-11-15T13:38:26;15.20;99.90
14531;DHT22;7352;50.866;4.366;2022-11-15T13:40:54;15.30;99.90
14531;DHT22;7352;50.866;4.366;2022-11-15T13:43:32;15.20;99.90
14531;DHT22;7352;50.866;4.366;2022-11-15T13:46:11;15.30;99.90
14531;DHT22;7352;50.866;4.366;2022-11-15T13:48:39;15.20;99.90
14531;DHT22;7352;50.866;4.366;2022-11-15T13:51:10;15.20;99.90
14531;DHT22;7352;50.866;4.366;2022-11-15T13:53:42;15.20;99.90
14531;DHT22;7352;50.866;4.366;2022-11-15T13:56:12;15.30;99.90
14531;DHT22;7352;50.866;4.366;2022-11-15T13:58:39;15.40;99.90
14531;DHT22;7352;50.866;4.366;2022-11-15T14:01:08;15.40;99.90
14531;DHT22;7352;50.866;4.366;2022-11-15T14:03:47;15.30;99.90
14531;DHT22;7352;50.866;4.366;2022-11-15T14:06:18;15.20;99.90
14531;DHT22;7352;50.866;4.366;2022-11-15T14:08:59;15.20;99.90
14531;DHT22;7352;50.866;4.366;2022-11-15T14:11:27;15.20;99.90
14531;DHT22;7352;50.866;4.366;2022-11-15T14:14:08;15.20;99.90
14531;DHT22;7352;50.866;4.366;2022-11-15T14:16:38;15.40;99.90
14531;DHT22;7352;50.866;4.366;2022-11-15T14:19:10;15.10;99.90
14531;DHT22;7352;50.866;4.366;2022-11-15T14:22:07;15.10;99.90
14531;DHT22;7352;50.866;4.366;2022-11-15T14:24:35;15.10;99.90
14531;DHT22;7352;50.866;4.366;2022-11-15T14:27:20;15.10;99.90
14531;DHT22;7352;50.866;4.366;2022-11-15T14:29:48;15.20;99.90
14531;DHT22;7352;50.866;4.366;2022-11-15T14:32:17;15.20;99.90
14531;DHT22;7352;50.866;4.366;2022-11-15T14:34:46;15.10;99.90
14531;DHT22;7352;50.866;4.366;2022-11-15T14:37:20;15.00;99.90
14531;DHT22;7352;50.866;4.366;2022-11-15T14:39:47;15.20;99.90
14531;DHT22;7352;50.866;4.366;2022-11-15T14:42:14;15.10;99.90
14531;DHT22;7352;50.866;4.366;2022-11-15T14:44:41;15.10;99.90
14531;DHT22;7352;50.866;4.366;2022-11-15T14:47:08;15.20;99.90
14531;DHT22;7352;50.866;4.366;2022-11-15T14:49:35;15.10;99.90
14531;DHT22;7352;50.866;4.366;2022-11-15T14:52:07;15.10;99.90
14531;DHT22;7352;50.866;4.366;2022-11-15T14:54:36;15.10;99.90
14531;DHT22;7352;50.866;4.366;2022-11-15T14:57:04;14.90;99.90
14531;DHT22;7352;50.866;4.366;2022-11-15T14:59:31;14.80;99.90
14531;DHT22;7352;50.866;4.366;2022-11-15T15:01:58;14.80;99.90
14531;DHT22;7352;50.866;4.366;2022-11-15T15:04:25;14.70;99.90
14531;DHT22;7352;50.866;4.366;2022-11-15T15:06:52;14.70;99.90
14531;DHT22;7352;50.866;4.366;2022-11-15T15:09:21;14.60;99.90
14531;DHT22;7352;50.866;4.366;2022-11-15T15:11:48;14.70;99.90
14531;DHT22;7352;50.866;4.366;2022-11-15T15:14:15;14.50;99.90
14531;DHT22;7352;50.866;4.366;2022-11-15T15:16:41;14.50;99.90
14531;DHT22;7352;50.866;4.366;2022-11-15T15:19:08;14.50;99.90
14531;DHT22;7352;50.866;4.366;2022-11-15T15:21:35;14.50;99.90
14531;DHT22;7352;50.866;4.366;2022-11-15T15:24:03;14.50;99.90
14531;DHT22;7352;50.866;4.366;2022-11-15T15:26:31;14.50;99.90
14531;DHT22;7352;50.866;4.366;2022-11-15T15:29:01;14.50;99.90
14531;DHT22;7352;50.866;4.366;2022-11-15T15:31:28;14.40;99.90
14531;DHT22;7352;50.866;4.366;2022-11-15T15:33:55;14.30;99.90
14531;DHT22;7352;50.866;4.366;2022-11-15T15:36:22;14.30;99.90
14531;DHT22;7352;50.866;4.366;2022-11-15T15:38:49;14.30;99.90
14531;DHT22;7352;50.866;4.366;2022-11-15T15:41:17;14.30;99.90
14531;DHT22;7352;50.866;4.366;2022-11-15T15:43:47;14.30;99.90
14531;DHT22;7352;50.866;4.366;2022-11-15T15:46:15;14.30;99.90
14531;DHT22;7352;50.866;4.366;2022-11-15T15:48:44;14.20;99.90
14531;DHT22;7352;50.866;4.366;2022-11-15T15:51:11;14.10;99.90
14531;DHT22;7352;50.866;4.366;2022-11-15T15:53:38;14.00;99.90
14531;DHT22;7352;50.866;4.366;2022-11-15T15:56:05;14.00;99.90
14531;DHT22;7352;50.866;4.366;2022-11-15T15:58:33;14.10;99.90
14531;DHT22;7352;50.866;4.366;2022-11-15T16:01:02;14.20;99.90
14531;DHT22;7352;50.866;4.366;2022-11-15T16:03:30;14.30;99.90
14531;DHT22;7352;50.866;4.366;2022-11-15T16:05:57;14.30;99.90
14531;DHT22;7352;50.866;4.366;2022-11-15T16:08:25;14.30;99.90
14531;DHT22;7352;50.866;4.366;2022-11-15T16:10:54;14.30;99.90
14531;DHT22;7352;50.866;4.366;2022-11-15T16:13:21;14.20;99.90
14531;DHT22;7352;50.866;4.366;2022-11-15T16:15:50;14.20;99.90
14531;DHT22;7352;50.866;4.366;2022-11-15T16:18:20;14.20;99.90
14531;DHT22;7352;50.866;4.366;2022-11-15T16:20:48;14.30;99.90
14531;DHT22;7352;50.866;4.366;2022-11-15T16:23:18;14.20;99.90